createdAt,value
2022-10-19T00:01:11.541Z,20.40
2022-10-19T00:03:40.127Z,23.50
2022-10-19T00:06:27.897Z,21.40
2022-10-19T00:09:15.936Z,26.00
2022-10-19T00:11:45.272Z,23.10
2022-10-19T00:14:14.677Z,25.90
2022-10-19T00:16:43.463Z,24.50
2022-10-19T00:19:16.449Z,23.50
2022-10-19T00:21:44.410Z,23.70
2022-10-19T00:24:12.362Z,22.30
2022-10-19T00:26:41.300Z,27.30
2022-10-19T00:29:10.534Z,22.40
2022-10-19T00:31:38.705Z,24.90
2022-10-19T00:34:06.848Z,22.00
2022-10-19T00:36:36.123Z,27.90
2022-10-19T00:39:04.995Z,22.10
2022-10-19T00:41:34.177Z,22.90
2022-10-19T00:44:04.322Z,24.40
2022-10-19T00:46:34.139Z,24.40
2022-10-19T00:49:13.369Z,30.90
2022-10-19T00:51:42.258Z,26.20
2022-10-19T00:54:10.432Z,28.50
2022-10-19T00:56:39.512Z,26.50
2022-10-19T00:59:08.055Z,29.60
2022-10-19T01:01:36.282Z,30.50
2022-10-19T01:04:04.899Z,30.70
2022-10-19T01:06:32.943Z,30.20
2022-10-19T01:09:01.542Z,33.60
2022-10-19T01:11:36.209Z,30.20
2022-10-19T01:14:17.274Z,28.80
2022-10-19T01:17:14.429Z,32.00
2022-10-19T01:19:48.385Z,30.20
2022-10-19T01:22:39.186Z,27.50
2022-10-19T01:25:20.581Z,28.60
2022-10-19T01:28:04.410Z,30.10
2022-10-19T01:30:55.111Z,27.80
2022-10-19T01:33:34.032Z,29.50
2022-10-19T01:36:01.945Z,26.60
2022-10-19T01:38:35.611Z,23.90
2022-10-19T01:41:12.360Z,30.70
2022-10-19T01:43:43.214Z,26.20
2022-10-19T01:46:17.944Z,30.10
2022-10-19T01:48:51.032Z,27.70
2022-10-19T01:51:21.356Z,24.40
2022-10-19T01:53:51.495Z,27.40
2022-10-19T01:56:21.900Z,25.60
2022-10-19T01:58:50.539Z,28.20
2022-10-19T02:01:19.988Z,27.10
2022-10-19T02:03:48.366Z,26.40
2022-10-19T02:06:16.193Z,23.80
2022-10-19T02:08:46.465Z,24.70
2022-10-19T02:11:16.366Z,28.20
2022-10-19T02:13:45.258Z,26.30
2022-10-19T02:16:26.032Z,24.40
2022-10-19T02:18:55.779Z,24.90
2022-10-19T02:21:23.754Z,24.50
2022-10-19T02:23:54.081Z,24.10
2022-10-19T02:26:23.125Z,25.80
2022-10-19T02:28:51.176Z,29.50
2022-10-19T02:31:18.779Z,26.00
2022-10-19T02:33:46.619Z,22.50
2022-10-19T02:36:14.347Z,25.70
2022-10-19T02:38:42.555Z,24.00
2022-10-19T02:41:29.221Z,24.80
2022-10-19T02:44:00.005Z,27.80
2022-10-19T02:46:37.140Z,27.70
2022-10-19T02:49:06.357Z,23.10
2022-10-19T02:51:35.233Z,25.30
2022-10-19T02:54:05.373Z,23.00
2022-10-19T02:56:33.993Z,26.90
2022-10-19T02:59:01.888Z,24.90
2022-10-19T03:01:30.351Z,28.50
2022-10-19T03:03:57.962Z,22.80
2022-10-19T03:06:25.624Z,23.10
2022-10-19T03:08:53.178Z,22.70
2022-10-19T03:11:21.394Z,25.30
2022-10-19T03:13:51.901Z,25.20
2022-10-19T03:16:19.994Z,26.90
2022-10-19T03:18:49.379Z,26.00
2022-10-19T03:21:17.854Z,24.80
2022-10-19T03:23:46.026Z,28.80
2022-10-19T03:26:16.250Z,26.40
2022-10-19T03:28:43.893Z,21.50
2022-10-19T03:31:11.673Z,23.00
2022-10-19T03:33:39.437Z,24.40
2022-10-19T03:36:23.975Z,24.20
2022-10-19T03:38:59.657Z,23.10
2022-10-19T03:41:29.045Z,19.60
2022-10-19T03:43:57.447Z,22.10
2022-10-19T03:46:26.211Z,23.00
2022-10-19T03:48:54.487Z,20.80
2022-10-19T03:51:26.805Z,19.60
2022-10-19T03:53:55.340Z,18.70
2022-10-19T03:56:24.535Z,22.60
2022-10-19T03:58:53.704Z,20.80
2022-10-19T04:01:23.344Z,20.30
2022-10-19T04:03:55.288Z,16.60
2022-10-19T04:06:25.423Z,16.90
2022-10-19T04:08:53.284Z,18.40
2022-10-19T04:11:23.024Z,18.90
2022-10-19T04:13:52.069Z,20.00
2022-10-19T04:16:21.062Z,20.50
2022-10-19T04:18:53.372Z,23.10
2022-10-19T04:21:26.116Z,18.90
2022-10-19T04:23:58.303Z,18.80
2022-10-19T04:26:26.885Z,22.00
2022-10-19T04:28:54.491Z,23.40
2022-10-19T04:31:22.310Z,17.20
2022-10-19T04:33:50.191Z,19.60
2022-10-19T04:36:18.250Z,17.00
2022-10-19T04:38:46.221Z,19.70
2022-10-19T04:41:15.624Z,15.90
2022-10-19T04:43:45.430Z,16.90
2022-10-19T04:46:15.451Z,14.60
2022-10-19T04:48:43.475Z,15.90
2022-10-19T04:51:11.439Z,15.90
2022-10-19T04:53:39.906Z,17.10
2022-10-19T04:56:09.095Z,14.40
2022-10-19T04:58:36.650Z,14.90
2022-10-19T05:01:08.792Z,17.00
2022-10-19T05:03:36.667Z,15.00
2022-10-19T05:06:05.252Z,15.40
2022-10-19T05:08:33.636Z,16.40
2022-10-19T05:11:02.523Z,17.70
2022-10-19T05:13:31.278Z,14.60
2022-10-19T05:16:00.399Z,16.20
2022-10-19T05:18:28.414Z,13.10
2022-10-19T05:21:02.980Z,16.60
2022-10-19T05:26:02.500Z,11.70
2022-10-19T05:28:31.110Z,12.40
2022-10-19T05:31:12.678Z,11.10
2022-10-19T05:33:41.049Z,14.10
2022-10-19T05:36:23.050Z,12.10
2022-10-19T05:38:52.668Z,13.00
2022-10-19T05:41:21.985Z,12.70
2022-10-19T05:43:57.705Z,12.90
2022-10-19T05:46:26.287Z,11.60
2022-10-19T05:48:55.590Z,9.80
2022-10-19T05:51:24.071Z,11.20
2022-10-19T05:53:53.041Z,11.00
2022-10-19T05:56:22.349Z,8.90
2022-10-19T05:58:50.218Z,14.70
2022-10-19T06:01:21.475Z,8.90
2022-10-19T06:03:51.809Z,9.10
2022-10-19T06:06:20.071Z,15.70
2022-10-19T06:08:48.452Z,7.80
2022-10-19T06:11:18.126Z,10.80
2022-10-19T06:13:47.048Z,13.30
2022-10-19T06:16:16.450Z,12.90
2022-10-19T06:18:44.626Z,11.50
2022-10-19T06:21:13.576Z,9.80
2022-10-19T06:26:14.263Z,9.10
2022-10-19T06:28:43.234Z,10.00
2022-10-19T06:31:11.186Z,11.10
2022-10-19T06:33:39.576Z,10.80
2022-10-19T06:36:08.062Z,10.20
2022-10-19T06:38:36.180Z,10.60
2022-10-19T06:41:04.233Z,9.90
2022-10-19T06:43:32.079Z,10.10
2022-10-19T06:46:03.448Z,9.40
2022-10-19T06:48:31.920Z,8.80
2022-10-19T06:51:00.613Z,10.90
2022-10-19T06:53:29.280Z,10.20
2022-10-19T06:55:59.000Z,10.40
2022-10-19T06:58:26.788Z,9.00
2022-10-19T07:00:57.146Z,10.30
2022-10-19T07:03:25.363Z,10.10
2022-10-19T07:05:57.530Z,11.30
2022-10-19T07:08:26.651Z,9.30
2022-10-19T07:10:56.538Z,10.40
2022-10-19T07:13:24.403Z,8.40
2022-10-19T07:15:58.934Z,12.90
2022-10-19T07:18:27.519Z,10.70
2022-10-19T07:20:59.791Z,11.10
2022-10-19T07:23:28.885Z,10.10
2022-10-19T07:26:01.866Z,13.80
2022-10-19T07:28:30.238Z,12.60
2022-10-19T07:30:58.005Z,11.20
2022-10-19T07:33:25.922Z,11.30
2022-10-19T07:35:58.752Z,8.90
2022-10-19T07:38:26.624Z,9.10
2022-10-19T07:41:15.689Z,9.20
2022-10-19T07:43:44.877Z,11.10
2022-10-19T07:46:17.557Z,9.80
2022-10-19T07:48:46.345Z,9.80
2022-10-19T07:51:18.149Z,10.30
2022-10-19T07:53:46.796Z,9.40
2022-10-19T07:56:16.189Z,9.20
2022-10-19T07:58:44.753Z,11.40
2022-10-19T08:01:14.283Z,11.10
2022-10-19T08:04:43.362Z,12.40
2022-10-19T08:06:31.507Z,12.30
2022-10-19T08:08:59.588Z,10.20
2022-10-19T08:11:32.785Z,10.50
2022-10-19T08:14:02.869Z,11.90
2022-10-19T08:16:37.542Z,8.20
2022-10-19T08:19:07.215Z,6.80
2022-10-19T08:21:35.452Z,9.60
2022-10-19T08:46:19.880Z,8.30
2022-10-19T08:48:47.551Z,6.60
2022-10-19T08:51:15.269Z,5.00
2022-10-19T08:53:42.982Z,4.80
2022-10-19T08:56:38.936Z,5.90
2022-10-19T09:01:37.551Z,3.90
2022-10-19T09:04:14.805Z,6.50
2022-10-19T09:06:45.630Z,5.30
2022-10-19T09:09:14.205Z,4.20
2022-10-19T09:11:44.657Z,5.30
2022-10-19T09:14:19.425Z,8.30
2022-10-19T09:30:24.781Z,6.10
2022-10-19T09:32:59.815Z,4.30
2022-10-19T09:35:29.221Z,6.30
2022-10-19T09:37:57.102Z,6.60
2022-10-19T09:40:27.404Z,3.60
2022-10-19T09:42:59.285Z,3.50
2022-10-19T09:45:47.596Z,3.20
2022-10-19T09:48:23.670Z,4.10
2022-10-19T09:50:54.710Z,2.70
2022-10-19T09:53:22.786Z,6.20
2022-10-19T09:55:58.694Z,4.00
2022-10-19T09:58:30.505Z,3.20
2022-10-19T10:01:02.054Z,6.20
2022-10-19T10:03:30.425Z,5.80
2022-10-19T10:06:08.435Z,5.60
2022-10-19T10:08:39.319Z,5.30
2022-10-19T10:11:13.287Z,4.40
2022-10-19T10:13:42.777Z,2.50
2022-10-19T10:16:13.737Z,3.90
2022-10-19T10:18:51.425Z,2.80
2022-10-19T10:21:27.032Z,2.10
2022-10-19T10:24:05.591Z,3.30
2022-10-19T10:26:38.238Z,3.40
2022-10-19T10:29:16.949Z,3.40
2022-10-19T10:42:56.518Z,5.40
2022-10-19T10:45:26.421Z,5.00
2022-10-19T10:47:54.295Z,4.30
2022-10-19T10:50:23.981Z,3.00
2022-10-19T10:52:57.395Z,3.20
2022-10-19T10:55:26.897Z,3.80
2022-10-19T10:57:59.171Z,5.50
2022-10-19T11:00:28.372Z,3.50
2022-10-19T11:03:05.244Z,4.90
2022-10-19T11:05:41.209Z,6.40
2022-10-19T11:08:12.033Z,5.10
2022-10-19T11:10:43.616Z,6.20
2022-10-19T11:13:26.243Z,5.40
2022-10-19T11:15:55.600Z,4.50
2022-10-19T11:18:32.376Z,5.10
2022-10-19T11:23:35.095Z,5.60
2022-10-19T11:26:26.901Z,4.20
2022-10-19T11:29:13.454Z,3.10
2022-10-19T11:31:41.649Z,5.40
2022-10-19T11:34:32.529Z,4.70
2022-10-19T11:37:02.979Z,4.60
2022-10-19T11:39:35.789Z,6.90
2022-10-19T11:42:26.595Z,7.70
2022-10-19T11:45:10.034Z,9.40
2022-10-19T11:47:53.381Z,5.60
2022-10-19T11:50:32.018Z,4.50
2022-10-19T11:53:20.828Z,3.80
2022-10-19T11:55:51.551Z,4.90
2022-10-19T11:58:25.094Z,3.20
2022-10-19T12:00:52.827Z,4.70
2022-10-19T12:03:39.533Z,4.40
2022-10-19T12:06:19.388Z,5.30
2022-10-19T12:09:06.033Z,5.30
2022-10-19T12:11:42.965Z,4.40
2022-10-19T12:14:13.723Z,4.70
2022-10-19T12:16:46.031Z,6.20
2022-10-19T12:19:19.979Z,5.60
2022-10-19T12:21:48.152Z,6.40
2022-10-19T12:24:21.445Z,5.70
2022-10-19T12:26:50.527Z,4.00
2022-10-19T12:29:21.787Z,4.20
2022-10-19T12:31:50.162Z,6.20
2022-10-19T12:34:24.617Z,6.50
2022-10-19T12:36:59.083Z,6.40
2022-10-19T12:39:26.853Z,5.50
2022-10-19T12:42:13.444Z,5.60
2022-10-19T12:45:03.465Z,4.10
2022-10-19T12:47:32.365Z,9.70
2022-10-19T12:50:04.110Z,6.70
2022-10-19T12:52:40.137Z,6.50
2022-10-19T12:55:11.340Z,4.40
2022-10-19T12:57:39.775Z,4.70
2022-10-19T13:00:21.737Z,3.80
2022-10-19T13:02:59.075Z,3.60
2022-10-19T13:05:28.572Z,3.50
2022-10-19T13:07:56.957Z,6.20
2022-10-19T13:10:25.799Z,5.20
2022-10-19T13:12:54.548Z,3.80
2022-10-19T13:15:37.702Z,5.10
2022-10-19T13:18:11.860Z,7.30
2022-10-19T13:23:13.849Z,7.20
2022-10-19T13:25:42.855Z,6.80
2022-10-19T13:28:11.044Z,6.60
2022-10-19T13:31:03.432Z,3.90
2022-10-19T13:33:42.074Z,6.60
2022-10-19T13:36:10.954Z,7.50
2022-10-19T13:38:51.212Z,8.80
2022-10-19T13:41:48.578Z,8.80
2022-10-19T13:44:17.553Z,4.50
2022-10-19T13:46:45.339Z,6.50
2022-10-19T13:49:37.261Z,6.20
2022-10-19T13:52:07.995Z,6.30
2022-10-19T13:54:36.168Z,5.00
2022-10-19T13:57:22.468Z,5.90
2022-10-19T13:59:57.412Z,6.30
2022-10-19T14:02:48.356Z,6.30
2022-10-19T14:05:16.151Z,6.90
2022-10-19T14:08:07.210Z,9.40
2022-10-19T14:10:56.273Z,7.40
2022-10-19T14:13:25.441Z,6.10
2022-10-19T14:15:54.449Z,10.60
2022-10-19T14:18:27.881Z,3.90
2022-10-19T14:20:57.335Z,4.30
2022-10-19T14:23:28.377Z,5.10
2022-10-19T14:26:01.161Z,4.30
2022-10-19T14:28:29.438Z,8.20
2022-10-19T14:31:01.600Z,5.50
2022-10-19T14:33:32.345Z,5.60
2022-10-19T14:36:00.102Z,6.10
2022-10-19T14:38:28.064Z,2.60
2022-10-19T14:40:56.688Z,6.20
2022-10-19T14:43:29.430Z,6.90
2022-10-19T14:46:04.761Z,4.20
2022-10-19T14:48:33.667Z,4.30
2022-10-19T14:51:02.871Z,3.30
2022-10-19T14:53:41.187Z,5.50
2022-10-19T14:56:19.968Z,3.30
2022-10-19T14:58:51.977Z,3.50
2022-10-19T15:01:22.004Z,4.50
2022-10-19T15:03:53.009Z,7.30
2022-10-19T15:06:25.461Z,5.80
2022-10-19T15:09:04.309Z,5.50
2022-10-19T15:11:39.110Z,4.20
2022-10-19T15:14:14.113Z,3.90
2022-10-19T15:16:42.560Z,7.50
2022-10-19T15:19:19.632Z,6.00
2022-10-19T15:21:47.841Z,5.10
2022-10-19T15:24:23.091Z,3.80
2022-10-19T15:27:01.802Z,4.60
2022-10-19T15:29:37.108Z,5.60
2022-10-19T15:32:16.022Z,4.90
2022-10-19T15:34:47.590Z,6.80
2022-10-19T15:37:20.443Z,3.80
2022-10-19T15:39:48.541Z,5.50
2022-10-19T15:42:35.086Z,4.30
2022-10-19T15:45:04.542Z,5.40
2022-10-19T15:47:32.438Z,7.10
2022-10-19T15:50:01.985Z,5.00
2022-10-19T15:52:32.134Z,7.30
2022-10-19T15:55:00.691Z,4.70
2022-10-19T15:57:30.586Z,4.90
2022-10-19T15:59:59.630Z,4.10
2022-10-19T16:02:27.695Z,5.20
2022-10-19T16:04:55.485Z,3.90
2022-10-19T16:07:35.754Z,3.90
2022-10-19T16:10:04.287Z,3.70
2022-10-19T16:12:32.165Z,4.80
2022-10-19T16:15:00.030Z,5.00
2022-10-19T16:17:27.968Z,4.00
2022-10-19T16:19:55.665Z,5.30
2022-10-19T16:22:23.327Z,7.40
2022-10-19T16:24:51.093Z,5.70
2022-10-19T16:27:18.951Z,7.10
2022-10-19T16:29:46.675Z,5.60
2022-10-19T16:32:14.580Z,8.90
2022-10-19T16:34:42.657Z,9.20
2022-10-19T16:37:10.421Z,8.20
2022-10-19T16:39:38.178Z,7.10
2022-10-19T16:42:06.201Z,9.40
2022-10-19T16:44:34.080Z,10.90
2022-10-19T16:47:01.867Z,15.30
2022-10-19T16:49:29.749Z,16.80
2022-10-19T16:51:57.917Z,13.10
2022-10-19T16:54:27.002Z,16.30
2022-10-19T16:56:55.851Z,18.90
2022-10-19T16:59:23.784Z,22.90
2022-10-19T17:01:51.670Z,27.10
2022-10-19T17:04:19.709Z,24.40
2022-10-19T17:06:47.676Z,17.30
2022-10-19T17:09:41.275Z,15.30
2022-10-19T17:12:04.017Z,12.30
2022-10-19T17:14:31.755Z,8.80
2022-10-19T17:16:59.632Z,13.40
2022-10-19T17:19:27.494Z,10.80
2022-10-19T17:21:57.294Z,11.90
2022-10-19T17:24:28.134Z,10.00
2022-10-19T17:26:56.112Z,18.60
2022-10-19T17:29:23.875Z,12.80
2022-10-19T17:31:51.837Z,10.20
2022-10-19T17:34:19.819Z,9.00
2022-10-19T17:36:48.416Z,9.20
2022-10-19T17:39:18.272Z,8.30
2022-10-19T17:41:46.990Z,7.40
2022-10-19T17:44:15.192Z,9.10
2022-10-19T17:46:43.336Z,8.40
2022-10-19T17:49:11.609Z,6.80
2022-10-19T17:51:40.089Z,7.60
2022-10-19T17:54:14.860Z,12.80
2022-10-19T17:56:45.350Z,13.30
2022-10-19T17:59:13.464Z,15.30
2022-10-19T18:01:41.700Z,29.30
2022-10-19T18:04:10.166Z,40.90
2022-10-19T18:06:38.650Z,40.40
2022-10-19T18:09:07.691Z,55.50
2022-10-19T18:11:37.563Z,64.70
2022-10-19T18:14:08.519Z,56.60
2022-10-19T18:16:42.452Z,64.80
2022-10-19T18:19:12.581Z,49.10
2022-10-19T18:21:42.586Z,35.50
2022-10-19T18:24:19.702Z,31.10
2022-10-19T18:26:49.731Z,27.00
2022-10-19T18:29:22.074Z,19.30
2022-10-19T18:31:52.828Z,18.70
2022-10-19T18:34:24.492Z,14.40
2022-10-19T18:36:54.495Z,14.30
2022-10-19T18:39:24.899Z,13.20
2022-10-19T18:41:55.104Z,11.10
2022-10-19T18:44:27.209Z,14.10
2022-10-19T18:46:57.407Z,11.20
2022-10-19T18:49:27.521Z,9.20
2022-10-19T18:51:57.454Z,10.40
2022-10-19T18:54:28.294Z,12.60
2022-10-19T18:56:57.263Z,10.20
2022-10-19T19:01:58.855Z,9.80
2022-10-19T19:04:27.320Z,9.70
2022-10-19T19:06:56.399Z,14.00
2022-10-19T19:09:24.482Z,9.90
2022-10-19T19:11:54.486Z,11.50
2022-10-19T19:14:22.670Z,9.40
2022-10-19T19:16:52.154Z,11.60
2022-10-19T19:19:21.171Z,13.70
2022-10-19T19:21:53.932Z,13.10
2022-10-19T19:24:22.935Z,13.60
2022-10-19T19:26:54.708Z,13.60
2022-10-19T19:29:25.979Z,11.80
2022-10-19T19:31:55.353Z,12.40
2022-10-19T19:34:25.633Z,12.60
2022-10-19T19:36:54.857Z,12.80
2022-10-19T19:39:24.768Z,10.10
2022-10-19T19:41:54.696Z,9.00
2022-10-19T19:44:24.069Z,8.70
2022-10-19T19:46:52.267Z,10.60
2022-10-19T19:49:21.666Z,15.90
2022-10-19T19:51:49.833Z,13.00
2022-10-19T19:54:18.938Z,12.80
2022-10-19T19:56:50.900Z,8.80
2022-10-19T19:59:19.375Z,12.10
2022-10-19T20:01:47.253Z,9.10
2022-10-19T20:04:15.310Z,8.80
2022-10-19T20:06:44.815Z,12.20
2022-10-19T20:09:12.988Z,9.60
2022-10-19T20:11:42.712Z,8.70
2022-10-19T20:14:12.156Z,8.60
2022-10-19T20:16:41.810Z,9.50
2022-10-19T20:19:12.239Z,10.70
2022-10-19T20:21:42.179Z,9.20
2022-10-19T20:24:11.504Z,9.50
2022-10-19T20:26:39.846Z,11.60
2022-10-19T20:29:07.925Z,10.70
2022-10-19T20:31:40.012Z,11.30
2022-10-19T20:34:10.791Z,10.00
2022-10-19T20:36:40.097Z,13.60
2022-10-19T20:39:08.174Z,14.90
2022-10-19T20:41:36.963Z,16.00
2022-10-19T20:44:07.815Z,15.00
2022-10-19T20:46:37.313Z,16.50
2022-10-19T20:49:05.466Z,15.70
2022-10-19T20:51:37.238Z,15.70
2022-10-19T20:54:09.369Z,15.40
2022-10-19T20:56:40.401Z,18.40
2022-10-19T20:59:14.444Z,16.40
2022-10-19T21:01:44.557Z,18.80
2022-10-19T21:04:14.375Z,22.10
2022-10-19T21:06:45.643Z,22.20
2022-10-19T21:09:15.874Z,23.40
2022-10-19T21:11:45.035Z,19.70
2022-10-19T21:14:25.271Z,20.70
2022-10-19T21:16:59.736Z,24.40
2022-10-19T21:19:29.525Z,28.00
2022-10-19T21:22:02.380Z,66.10
2022-10-19T21:24:32.989Z,73.30
2022-10-19T21:27:02.037Z,70.90
2022-10-19T21:29:30.309Z,75.50
2022-10-19T21:31:58.482Z,62.40
2022-10-19T21:34:27.676Z,69.70
2022-10-19T21:36:56.260Z,58.00
2022-10-19T21:39:24.329Z,43.40
2022-10-19T21:41:52.312Z,38.20
2022-10-19T21:44:23.340Z,32.30
2022-10-19T21:46:51.009Z,30.10
2022-10-19T21:49:18.872Z,37.10
2022-10-19T21:51:46.829Z,36.00
2022-10-19T21:54:16.039Z,34.30
2022-10-19T21:56:44.210Z,38.40
2022-10-19T21:59:12.679Z,39.60
2022-10-19T22:01:41.783Z,37.90
2022-10-19T22:04:13.860Z,33.80
2022-10-19T22:06:42.700Z,61.90
2022-10-19T22:09:12.394Z,119.30
2022-10-19T22:11:40.213Z,89.20
2022-10-19T22:14:07.982Z,91.60
2022-10-19T22:16:37.047Z,85.10
2022-10-19T22:19:05.554Z,91.30
2022-10-19T22:21:34.744Z,98.90
2022-10-19T22:24:04.352Z,115.80
2022-10-19T22:26:37.366Z,101.50
2022-10-19T22:29:06.124Z,99.60
2022-10-19T22:31:34.405Z,86.70
2022-10-19T22:34:06.902Z,83.10
2022-10-19T22:36:34.828Z,102.20
2022-10-19T22:39:02.971Z,83.90
2022-10-19T22:41:30.550Z,87.20
2022-10-19T22:43:58.259Z,83.10
2022-10-19T22:46:26.101Z,86.50
2022-10-19T22:48:53.784Z,89.10
2022-10-19T22:51:21.594Z,77.40
2022-10-19T22:53:49.393Z,68.70
2022-10-19T22:56:17.362Z,60.10
2022-10-19T22:58:45.029Z,60.40
2022-10-19T23:01:14.334Z,65.40
2022-10-19T23:03:42.598Z,51.70
2022-10-19T23:06:12.204Z,55.90
2022-10-19T23:08:40.235Z,42.30
2022-10-19T23:11:07.996Z,40.90
2022-10-19T23:13:36.013Z,39.10
2022-10-19T23:16:03.981Z,45.60
2022-10-19T23:18:32.235Z,50.40
2022-10-19T23:21:02.064Z,47.70
2022-10-19T23:23:31.542Z,55.30
2022-10-19T23:26:02.370Z,48.90
2022-10-19T23:28:30.987Z,46.60
2022-10-19T23:30:59.570Z,45.80
2022-10-19T23:33:27.436Z,45.80
2022-10-19T23:35:55.201Z,43.00
2022-10-19T23:38:22.964Z,44.00
2022-10-19T23:40:51.137Z,39.50
2022-10-19T23:43:18.820Z,39.00
2022-10-19T23:45:46.663Z,35.30
2022-10-19T23:48:14.427Z,29.80
2022-10-19T23:50:41.996Z,32.60
2022-10-19T23:53:09.566Z,35.40
2022-10-19T23:55:37.317Z,29.10
2022-10-19T23:58:05.072Z,25.40
